Adolphus, Kentucky
Current Conditions -  °F | °C
As of 3:53 PM on Wednesday 28 Jan 2015 (Local Time) from KBWG Reporting Station
Clear Clear  
Wind Chill:   Ceiling: Unl
Heat Index:   Visibility: 10mi
Dew Point: -7°   Wind: 7mph
Humidity: 34%   Direction: 130°SE
Pressure: 30.22"   Gusts: NA
Location:  36.65°N, 86.26°W
Report Text: KBWG 282153Z AUTO 13006KT 10SM CLR 08/M07 A3022 RMK AO2 SLP236 T00781072
Loading
Personal Weather Stations






























Interactive Weather Map New forecast layout! Learn more

10-Day Weather Forecast

Advertisements
Track Severe Weather on mobile